CheckWX is a tool to help pilots better visualize weather data.  It is not intended as a substitute for an official pre-flight weather briefing.

11:54:44 UTC

KVPS METAR
Eglin AFB / Destin-Ft Walton Beach Airport
Valparaiso/Destin-Ft Walton Beach, Florida, USA
Current

59 mins ago

KVPS 201056Z AUTO 36006KT 10SM CLR 08/05 A3011 RMK AO2 SLP203 T00830052 $
Observed
Nov-20 @ 10:56 UTC
Wind
  • 360° at 6 KTS
Visibility
10 SM
Flight Rules
VFR
Cloud Levels
  • Clear skies
Temperature
C / 46°F
Dewpoint
C / 41°F
Humidity
82%
Altimeter
30.11" Hg
Pressure
1019.62 hPa
Previous

2 hours ago

KVPS 200956Z AUTO 34005KT 10SM CLR 09/06 A3009 RMK AO2 SLP196 T00930057 $
Observed
Nov-20 @ 09:56 UTC
Wind
  • 340° at 5 KTS
Visibility
10 SM
Flight Rules
VFR
Cloud Levels
  • Clear skies
Temperature
C / 48°F
Dewpoint
C / 43°F
Humidity
82%
Altimeter
30.09" Hg
Pressure
1018.92 hPa
Previous

3 hours ago

KVPS 200856Z AUTO 33003KT 10SM CLR 08/05 A3007 RMK AO2 SLP190 T00760054 52009 $
Observed
Nov-20 @ 08:56 UTC
Wind
  • 330° at 3 KTS
Visibility
10 SM
Flight Rules
VFR
Cloud Levels
  • Clear skies
Temperature
C / 46°F
Dewpoint
C / 41°F
Humidity
82%
Altimeter
30.07" Hg
Pressure
1018.32 hPa